Flight Training


We provide structured training required to obtain a pilots certificate ranging from a Private Pilot up to ATP flying for the major airlines.

If your desire to fly is for personal pleasure the first step is to find a professional FAA licensed flight instructor to begin your journey.

The one-hour introductory flight with an instructor lasts one hour and features a log book and a six-month subscription to Flight Training magazine. After flying you to the training area, your instructor will let you test the controls. Call us now

 

Aviation Weather

Available data for KLDJ from the past 2 hours
LINDEN, NJ
Metar
KLDJ 190215Z AUTO 00000KT 10SM CLR 17/06 A3030 RMK AO2 T01660062

02:15 UTC

Wind: 0° 0kt

Visibility: 10 SM

Sky:

Temp: 17 deg C / 62.6 deg F

Dewpoint: 6 deg C / 42.8 deg F

Pressure: 30.3 inHg

Pirep (1)
JFK UA /OV JFK/TM 0021/FL270/TP A319/TB LGT CHOP 300-380 MOD CHOP 270/RM DURD

Available data for KEWR from the past hour
NEWARK, NJ
TAF
KEWR 182336Z 1900/2006 07008KT P6SM FEW030 SCT050 FM190300 03007KT P6SM SKC FM192000 13007KT P6SM SKC FM192300 18005KT P6SM SKC FM200300 23005KT P6SM SKC

Our planes

Some of our students